sensor_id;sensor_type;location;lat;lon;timestamp;P1;durP1;ratioP1;P2;durP2;ratioP2
22894;SDS011;11614;52.494;6.976;2024-03-23T00:55:23;19.53;;;7.97;;
22894;SDS011;11614;52.494;6.976;2024-03-23T00:57:49;19.70;;;6.60;;
22894;SDS011;11614;52.494;6.976;2024-03-23T01:00:15;18.10;;;7.03;;
22894;SDS011;11614;52.494;6.976;2024-03-23T01:02:41;17.50;;;7.17;;
22894;SDS011;11614;52.494;6.976;2024-03-23T01:05:07;20.70;;;6.80;;
22894;SDS011;11614;52.494;6.976;2024-03-23T01:07:33;18.83;;;6.67;;
22894;SDS011;11614;52.494;6.976;2024-03-23T01:09:59;17.87;;;6.13;;
22894;SDS011;11614;52.494;6.976;2024-03-23T01:12:25;9.33;;;3.90;;
22894;SDS011;11614;52.494;6.976;2024-03-23T01:14:51;17.33;;;7.17;;
22894;SDS011;11614;52.494;6.976;2024-03-23T01:17:16;20.13;;;7.07;;
22894;SDS011;11614;52.494;6.976;2024-03-23T01:19:42;13.33;;;5.70;;
22894;SDS011;11614;52.494;6.976;2024-03-23T01:22:08;21.03;;;6.43;;
22894;SDS011;11614;52.494;6.976;2024-03-23T01:24:35;15.73;;;6.47;;
22894;SDS011;11614;52.494;6.976;2024-03-23T01:27:01;15.03;;;5.50;;
22894;SDS011;11614;52.494;6.976;2024-03-23T01:29:27;17.83;;;6.57;;
22894;SDS011;11614;52.494;6.976;2024-03-23T01:31:53;17.27;;;6.23;;
22894;SDS011;11614;52.494;6.976;2024-03-23T01:34:19;16.20;;;6.03;;
22894;SDS011;11614;52.494;6.976;2024-03-23T01:36:45;14.50;;;3.20;;
22894;SDS011;11614;52.494;6.976;2024-03-23T01:39:12;19.27;;;7.00;;
22894;SDS011;11614;52.494;6.976;2024-03-23T01:41:39;20.67;;;6.53;;
22894;SDS011;11614;52.494;6.976;2024-03-23T01:44:07;18.13;;;6.10;;
22894;SDS011;11614;52.494;6.976;2024-03-23T01:46:34;16.40;;;6.13;;
22894;SDS011;11614;52.494;6.976;2024-03-23T01:49:01;21.20;;;6.33;;
22894;SDS011;11614;52.494;6.976;2024-03-23T01:51:27;17.60;;;5.90;;
22894;SDS011;11614;52.494;6.976;2024-03-23T01:53:53;17.60;;;5.83;;
22894;SDS011;11614;52.494;6.976;2024-03-23T01:56:20;17.13;;;6.20;;
22894;SDS011;11614;52.494;6.976;2024-03-23T01:58:46;11.07;;;3.77;;
22894;SDS011;11614;52.494;6.976;2024-03-23T02:01:12;14.17;;;6.27;;
22894;SDS011;11614;52.494;6.976;2024-03-23T02:03:38;15.30;;;5.67;;
22894;SDS011;11614;52.494;6.976;2024-03-23T02:06:06;14.30;;;5.10;;
22894;SDS011;11614;52.494;6.976;2024-03-23T02:08:33;17.83;;;5.10;;
22894;SDS011;11614;52.494;6.976;2024-03-23T02:11:03;14.23;;;4.63;;
22894;SDS011;11614;52.494;6.976;2024-03-23T02:13:29;12.73;;;4.97;;
22894;SDS011;11614;52.494;6.976;2024-03-23T02:15:56;17.20;;;6.47;;
22894;SDS011;11614;52.494;6.976;2024-03-23T02:18:23;16.30;;;4.77;;
22894;SDS011;11614;52.494;6.976;2024-03-23T02:20:49;13.77;;;4.63;;
22894;SDS011;11614;52.494;6.976;2024-03-23T02:23:15;13.83;;;3.97;;
22894;SDS011;11614;52.494;6.976;2024-03-23T02:25:41;20.90;;;6.00;;
22894;SDS011;11614;52.494;6.976;2024-03-23T02:28:08;12.00;;;3.87;;
22894;SDS011;11614;52.494;6.976;2024-03-23T02:30:34;16.87;;;4.50;;
22894;SDS011;11614;52.494;6.976;2024-03-23T02:33:00;14.73;;;4.80;;
22894;SDS011;11614;52.494;6.976;2024-03-23T02:35:25;16.83;;;4.73;;
22894;SDS011;11614;52.494;6.976;2024-03-23T02:37:52;16.33;;;5.43;;
22894;SDS011;11614;52.494;6.976;2024-03-23T02:40:19;11.93;;;3.63;;
22894;SDS011;11614;52.494;6.976;2024-03-23T02:42:45;12.03;;;3.67;;
22894;SDS011;11614;52.494;6.976;2024-03-23T02:45:11;10.17;;;3.47;;
22894;SDS011;11614;52.494;6.976;2024-03-23T02:47:37;17.40;;;3.73;;
22894;SDS011;11614;52.494;6.976;2024-03-23T02:50:03;18.17;;;5.07;;
22894;SDS011;11614;52.494;6.976;2024-03-23T02:52:30;15.20;;;4.80;;
22894;SDS011;11614;52.494;6.976;2024-03-23T02:54:56;9.53;;;3.53;;
22894;SDS011;11614;52.494;6.976;2024-03-23T02:57:22;6.33;;;2.23;;
22894;SDS011;11614;52.494;6.976;2024-03-23T02:59:48;14.03;;;3.77;;
22894;SDS011;11614;52.494;6.976;2024-03-23T03:02:14;7.97;;;2.90;;
22894;SDS011;11614;52.494;6.976;2024-03-23T03:04:40;20.00;;;4.83;;
22894;SDS011;11614;52.494;6.976;2024-03-23T03:07:06;22.23;;;5.10;;
22894;SDS011;11614;52.494;6.976;2024-03-23T03:09:32;5.57;;;1.97;;
22894;SDS011;11614;52.494;6.976;2024-03-23T03:12:05;17.60;;;4.23;;
22894;SDS011;11614;52.494;6.976;2024-03-23T03:14:31;17.93;;;4.70;;
22894;SDS011;11614;52.494;6.976;2024-03-23T03:16:57;18.07;;;4.67;;
22894;SDS011;11614;52.494;6.976;2024-03-23T03:19:23;16.97;;;4.50;;
22894;SDS011;11614;52.494;6.976;2024-03-23T03:21:49;20.13;;;4.60;;
22894;SDS011;11614;52.494;6.976;2024-03-23T03:24:15;10.87;;;3.30;;
22894;SDS011;11614;52.494;6.976;2024-03-23T03:26:41;19.17;;;3.67;;
22894;SDS011;11614;52.494;6.976;2024-03-23T03:29:08;13.20;;;4.67;;
22894;SDS011;11614;52.494;6.976;2024-03-23T03:31:34;22.00;;;5.03;;
22894;SDS011;11614;52.494;6.976;2024-03-23T03:34:00;15.20;;;4.67;;
22894;SDS011;11614;52.494;6.976;2024-03-23T03:36:26;17.27;;;4.83;;
22894;SDS011;11614;52.494;6.976;2024-03-23T03:38:52;7.47;;;2.83;;
22894;SDS011;11614;52.494;6.976;2024-03-23T03:41:18;15.07;;;5.03;;
22894;SDS011;11614;52.494;6.976;2024-03-23T03:43:44;17.63;;;4.53;;
22894;SDS011;11614;52.494;6.976;2024-03-23T03:46:10;14.97;;;4.13;;
22894;SDS011;11614;52.494;6.976;2024-03-23T03:48:36;10.07;;;3.53;;
22894;SDS011;11614;52.494;6.976;2024-03-23T03:51:03;13.67;;;4.13;;
22894;SDS011;11614;52.494;6.976;2024-03-23T03:53:29;14.63;;;4.10;;
22894;SDS011;11614;52.494;6.976;2024-03-23T03:55:55;11.80;;;4.50;;
22894;SDS011;11614;52.494;6.976;2024-03-23T03:58:22;14.63;;;4.77;;
22894;SDS011;11614;52.494;6.976;2024-03-23T04:00:48;16.40;;;4.43;;
22894;SDS011;11614;52.494;6.976;2024-03-23T04:03:13;4.50;;;2.33;;
22894;SDS011;11614;52.494;6.976;2024-03-23T04:05:39;13.97;;;5.17;;
22894;SDS011;11614;52.494;6.976;2024-03-23T04:08:07;8.73;;;2.20;;
22894;SDS011;11614;52.494;6.976;2024-03-23T04:10:33;8.37;;;3.80;;
22894;SDS011;11614;52.494;6.976;2024-03-23T04:12:59;15.00;;;4.57;;
22894;SDS011;11614;52.494;6.976;2024-03-23T04:15:26;10.20;;;4.73;;
22894;SDS011;11614;52.494;6.976;2024-03-23T04:17:52;14.67;;;5.87;;
22894;SDS011;11614;52.494;6.976;2024-03-23T04:20:18;21.60;;;6.07;;
22894;SDS011;11614;52.494;6.976;2024-03-23T04:22:44;20.30;;;6.73;;
22894;SDS011;11614;52.494;6.976;2024-03-23T04:25:10;10.53;;;3.83;;
22894;SDS011;11614;52.494;6.976;2024-03-23T04:27:38;16.93;;;6.83;;
22894;SDS011;11614;52.494;6.976;2024-03-23T04:30:07;15.90;;;4.70;;
22894;SDS011;11614;52.494;6.976;2024-03-23T04:32:39;18.33;;;5.70;;
22894;SDS011;11614;52.494;6.976;2024-03-23T04:35:05;19.80;;;5.87;;
22894;SDS011;11614;52.494;6.976;2024-03-23T04:37:34;17.17;;;4.77;;
22894;SDS011;11614;52.494;6.976;2024-03-23T04:40:00;19.27;;;5.63;;
22894;SDS011;11614;52.494;6.976;2024-03-23T04:42:28;16.47;;;6.27;;
22894;SDS011;11614;52.494;6.976;2024-03-23T04:44:54;9.90;;;2.97;;
22894;SDS011;11614;52.494;6.976;2024-03-23T04:47:20;13.53;;;4.20;;
22894;SDS011;11614;52.494;6.976;2024-03-23T04:49:46;10.30;;;3.47;;
22894;SDS011;11614;52.494;6.976;2024-03-23T04:52:12;16.13;;;5.53;;
22894;SDS011;11614;52.494;6.976;2024-03-23T04:54:38;14.07;;;6.93;;
22894;SDS011;11614;52.494;6.976;2024-03-23T04:57:07;18.23;;;6.40;;
22894;SDS011;11614;52.494;6.976;2024-03-23T04:59:33;24.23;;;7.27;;
22894;SDS011;11614;52.494;6.976;2024-03-23T05:01:59;20.27;;;6.60;;
22894;SDS011;11614;52.494;6.976;2024-03-23T05:04:25;11.03;;;4.07;;
22894;SDS011;11614;52.494;6.976;2024-03-23T05:06:51;9.23;;;3.03;;
22894;SDS011;11614;52.494;6.976;2024-03-23T05:09:17;11.20;;;4.20;;
22894;SDS011;11614;52.494;6.976;2024-03-23T05:11:43;16.90;;;6.00;;
22894;SDS011;11614;52.494;6.976;2024-03-23T05:14:10;19.70;;;7.37;;
22894;SDS011;11614;52.494;6.976;2024-03-23T05:16:36;21.83;;;6.37;;
22894;SDS011;11614;52.494;6.976;2024-03-23T05:19:02;11.80;;;4.60;;
22894;SDS011;11614;52.494;6.976;2024-03-23T05:21:28;23.57;;;6.73;;
22894;SDS011;11614;52.494;6.976;2024-03-23T05:23:54;20.40;;;7.63;;
22894;SDS011;11614;52.494;6.976;2024-03-23T05:26:21;20.83;;;6.87;;
22894;SDS011;11614;52.494;6.976;2024-03-23T05:28:48;20.67;;;7.70;;
22894;SDS011;11614;52.494;6.976;2024-03-23T05:31:31;17.00;;;4.07;;
22894;SDS011;11614;52.494;6.976;2024-03-23T05:33:58;22.87;;;7.57;;
22894;SDS011;11614;52.494;6.976;2024-03-23T05:36:24;15.37;;;6.40;;
22894;SDS011;11614;52.494;6.976;2024-03-23T05:38:50;17.60;;;7.27;;
22894;SDS011;11614;52.494;6.976;2024-03-23T05:41:16;14.60;;;5.53;;
22894;SDS011;11614;52.494;6.976;2024-03-23T05:43:42;19.10;;;7.07;;
22894;SDS011;11614;52.494;6.976;2024-03-23T05:46:08;18.57;;;6.40;;
22894;SDS011;11614;52.494;6.976;2024-03-23T05:48:34;8.23;;;2.40;;
22894;SDS011;11614;52.494;6.976;2024-03-23T05:51:00;20.63;;;7.07;;
22894;SDS011;11614;52.494;6.976;2024-03-23T05:53:26;19.83;;;7.77;;
22894;SDS011;11614;52.494;6.976;2024-03-23T05:56:00;15.17;;;6.60;;
22894;SDS011;11614;52.494;6.976;2024-03-23T05:58:28;17.17;;;6.77;;
22894;SDS011;11614;52.494;6.976;2024-03-23T06:00:58;20.07;;;6.87;;
22894;SDS011;11614;52.494;6.976;2024-03-23T06:03:25;19.70;;;5.07;;
22894;SDS011;11614;52.494;6.976;2024-03-23T06:05:51;21.23;;;8.00;;
22894;SDS011;11614;52.494;6.976;2024-03-23T06:08:18;17.07;;;6.30;;
22894;SDS011;11614;52.494;6.976;2024-03-23T06:10:44;17.97;;;6.10;;
22894;SDS011;11614;52.494;6.976;2024-03-23T06:13:10;22.20;;;7.17;;
22894;SDS011;11614;52.494;6.976;2024-03-23T06:15:36;18.00;;;6.90;;
22894;SDS011;11614;52.494;6.976;2024-03-23T06:18:03;20.10;;;7.30;;
22894;SDS011;11614;52.494;6.976;2024-03-23T06:20:29;19.97;;;7.67;;
22894;SDS011;11614;52.494;6.976;2024-03-23T06:22:55;16.07;;;6.83;;
22894;SDS011;11614;52.494;6.976;2024-03-23T06:25:21;16.90;;;5.93;;
22894;SDS011;11614;52.494;6.976;2024-03-23T06:27:47;15.40;;;6.70;;
22894;SDS011;11614;52.494;6.976;2024-03-23T06:30:13;18.60;;;6.23;;
22894;SDS011;11614;52.494;6.976;2024-03-23T06:32:39;18.00;;;6.93;;
22894;SDS011;11614;52.494;6.976;2024-03-23T06:35:05;12.77;;;6.07;;
22894;SDS011;11614;52.494;6.976;2024-03-23T06:37:33;17.20;;;5.33;;
22894;SDS011;11614;52.494;6.976;2024-03-23T06:39:59;13.20;;;5.70;;
22894;SDS011;11614;52.494;6.976;2024-03-23T06:42:25;15.73;;;6.73;;
22894;SDS011;11614;52.494;6.976;2024-03-23T06:44:51;18.77;;;6.27;;
22894;SDS011;11614;52.494;6.976;2024-03-23T06:47:17;11.23;;;5.73;;
22894;SDS011;11614;52.494;6.976;2024-03-23T06:49:43;13.87;;;5.60;;
22894;SDS011;11614;52.494;6.976;2024-03-23T06:52:09;6.83;;;3.90;;
22894;SDS011;11614;52.494;6.976;2024-03-23T06:54:35;14.80;;;5.87;;
22894;SDS011;11614;52.494;6.976;2024-03-23T06:57:01;9.50;;;4.30;;
22894;SDS011;11614;52.494;6.976;2024-03-23T06:59:28;12.37;;;5.43;;
22894;SDS011;11614;52.494;6.976;2024-03-23T07:01:54;9.93;;;5.40;;
22894;SDS011;11614;52.494;6.976;2024-03-23T07:04:19;12.00;;;4.63;;
22894;SDS011;11614;52.494;6.976;2024-03-23T07:06:45;13.90;;;4.33;;
22894;SDS011;11614;52.494;6.976;2024-03-23T07:09:11;11.60;;;3.77;;
22894;SDS011;11614;52.494;6.976;2024-03-23T07:11:37;8.53;;;3.23;;
22894;SDS011;11614;52.494;6.976;2024-03-23T07:14:03;6.30;;;3.03;;
22894;SDS011;11614;52.494;6.976;2024-03-23T07:16:30;10.00;;;3.97;;
22894;SDS011;11614;52.494;6.976;2024-03-23T07:18:56;15.03;;;3.93;;
22894;SDS011;11614;52.494;6.976;2024-03-23T07:21:22;9.33;;;3.57;;
22894;SDS011;11614;52.494;6.976;2024-03-23T07:23:48;14.23;;;5.03;;
22894;SDS011;11614;52.494;6.976;2024-03-23T07:26:14;12.00;;;5.73;;
22894;SDS011;11614;52.494;6.976;2024-03-23T07:28:40;14.60;;;5.87;;
22894;SDS011;11614;52.494;6.976;2024-03-23T07:31:10;14.20;;;6.23;;
22894;SDS011;11614;52.494;6.976;2024-03-23T07:33:37;14.67;;;5.53;;
22894;SDS011;11614;52.494;6.976;2024-03-23T07:36:03;13.67;;;5.33;;
22894;SDS011;11614;52.494;6.976;2024-03-23T07:38:30;9.70;;;4.20;;
22894;SDS011;11614;52.494;6.976;2024-03-23T07:41:05;8.47;;;3.37;;
22894;SDS011;11614;52.494;6.976;2024-03-23T07:43:31;11.30;;;4.40;;
22894;SDS011;11614;52.494;6.976;2024-03-23T07:45:58;7.40;;;2.80;;
22894;SDS011;11614;52.494;6.976;2024-03-23T07:48:24;5.00;;;2.57;;
22894;SDS011;11614;52.494;6.976;2024-03-23T07:53:26;3.63;;;1.97;;
22894;SDS011;11614;52.494;6.976;2024-03-23T07:55:53;6.10;;;2.33;;
22894;SDS011;11614;52.494;6.976;2024-03-23T07:58:20;4.43;;;2.23;;
22894;SDS011;11614;52.494;6.976;2024-03-23T08:00:46;3.30;;;2.33;;
22894;SDS011;11614;52.494;6.976;2024-03-23T08:03:12;5.10;;;1.37;;
22894;SDS011;11614;52.494;6.976;2024-03-23T08:05:38;2.70;;;1.20;;
22894;SDS011;11614;52.494;6.976;2024-03-23T08:08:04;3.07;;;1.20;;
22894;SDS011;11614;52.494;6.976;2024-03-23T08:10:30;3.93;;;1.20;;
22894;SDS011;11614;52.494;6.976;2024-03-23T08:12:55;1.90;;;1.07;;
22894;SDS011;11614;52.494;6.976;2024-03-23T08:15:21;1.93;;;1.30;;
22894;SDS011;11614;52.494;6.976;2024-03-23T08:17:48;2.30;;;1.00;;
22894;SDS011;11614;52.494;6.976;2024-03-23T08:20:15;2.97;;;1.00;;
22894;SDS011;11614;52.494;6.976;2024-03-23T08:22:40;4.70;;;1.63;;
22894;SDS011;11614;52.494;6.976;2024-03-23T08:25:07;1.70;;;0.60;;
22894;SDS011;11614;52.494;6.976;2024-03-23T08:27:33;4.33;;;1.17;;
22894;SDS011;11614;52.494;6.976;2024-03-23T08:29:58;3.53;;;0.80;;
22894;SDS011;11614;52.494;6.976;2024-03-23T08:32:24;2.27;;;1.20;;
22894;SDS011;11614;52.494;6.976;2024-03-23T08:34:50;1.90;;;1.00;;
22894;SDS011;11614;52.494;6.976;2024-03-23T08:37:16;1.43;;;0.83;;
22894;SDS011;11614;52.494;6.976;2024-03-23T08:39:45;3.80;;;1.03;;
22894;SDS011;11614;52.494;6.976;2024-03-23T08:42:11;5.10;;;0.90;;
22894;SDS011;11614;52.494;6.976;2024-03-23T08:44:37;6.93;;;1.50;;
22894;SDS011;11614;52.494;6.976;2024-03-23T08:47:03;5.03;;;1.13;;
22894;SDS011;11614;52.494;6.976;2024-03-23T08:49:29;3.90;;;0.93;;
22894;SDS011;11614;52.494;6.976;2024-03-23T08:51:55;3.10;;;0.57;;
22894;SDS011;11614;52.494;6.976;2024-03-23T08:54:21;2.53;;;0.40;;
22894;SDS011;11614;52.494;6.976;2024-03-23T08:56:48;1.43;;;0.57;;
22894;SDS011;11614;52.494;6.976;2024-03-23T08:59:14;3.07;;;1.00;;
22894;SDS011;11614;52.494;6.976;2024-03-23T09:01:40;2.23;;;0.70;;
22894;SDS011;11614;52.494;6.976;2024-03-23T09:04:06;1.93;;;0.63;;
22894;SDS011;11614;52.494;6.976;2024-03-23T09:06:32;1.67;;;0.27;;
22894;SDS011;11614;52.494;6.976;2024-03-23T09:08:58;2.30;;;0.40;;
22894;SDS011;11614;52.494;6.976;2024-03-23T09:11:24;0.80;;;0.10;;
22894;SDS011;11614;52.494;6.976;2024-03-23T09:13:49;0.90;;;0.10;;
22894;SDS011;11614;52.494;6.976;2024-03-23T09:16:15;1.10;;;0.27;;
22894;SDS011;11614;52.494;6.976;2024-03-23T09:18:41;1.27;;;0.50;;
22894;SDS011;11614;52.494;6.976;2024-03-23T09:21:11;1.43;;;0.23;;
22894;SDS011;11614;52.494;6.976;2024-03-23T09:23:38;1.30;;;0.70;;
22894;SDS011;11614;52.494;6.976;2024-03-23T09:26:04;3.37;;;1.47;;
22894;SDS011;11614;52.494;6.976;2024-03-23T09:28:32;4.20;;;0.80;;
22894;SDS011;11614;52.494;6.976;2024-03-23T09:31:04;2.40;;;0.90;;
22894;SDS011;11614;52.494;6.976;2024-03-23T09:33:30;2.90;;;1.07;;
22894;SDS011;11614;52.494;6.976;2024-03-23T09:35:56;3.07;;;0.70;;
22894;SDS011;11614;52.494;6.976;2024-03-23T09:38:23;2.53;;;0.97;;
22894;SDS011;11614;52.494;6.976;2024-03-23T09:40:52;1.37;;;0.53;;
22894;SDS011;11614;52.494;6.976;2024-03-23T09:43:18;2.30;;;0.70;;
22894;SDS011;11614;52.494;6.976;2024-03-23T09:45:44;2.30;;;0.80;;
22894;SDS011;11614;52.494;6.976;2024-03-23T09:48:10;1.93;;;1.00;;
22894;SDS011;11614;52.494;6.976;2024-03-23T09:50:39;4.30;;;0.57;;
22894;SDS011;11614;52.494;6.976;2024-03-23T09:53:06;2.37;;;0.60;;
22894;SDS011;11614;52.494;6.976;2024-03-23T09:55:32;2.83;;;0.63;;
22894;SDS011;11614;52.494;6.976;2024-03-23T09:58:00;1.20;;;0.37;;
22894;SDS011;11614;52.494;6.976;2024-03-23T10:00:26;2.43;;;0.50;;
22894;SDS011;11614;52.494;6.976;2024-03-23T10:02:54;2.27;;;0.63;;
22894;SDS011;11614;52.494;6.976;2024-03-23T10:05:23;5.20;;;0.83;;
22894;SDS011;11614;52.494;6.976;2024-03-23T10:07:50;2.97;;;0.80;;
22894;SDS011;11614;52.494;6.976;2024-03-23T10:10:16;1.97;;;0.80;;
22894;SDS011;11614;52.494;6.976;2024-03-23T10:12:46;4.23;;;1.20;;
22894;SDS011;11614;52.494;6.976;2024-03-23T10:15:22;2.33;;;0.50;;
22894;SDS011;11614;52.494;6.976;2024-03-23T10:17:48;4.50;;;1.13;;
22894;SDS011;11614;52.494;6.976;2024-03-23T10:20:21;3.03;;;1.27;;
22894;SDS011;11614;52.494;6.976;2024-03-23T10:22:48;2.70;;;0.57;;
22894;SDS011;11614;52.494;6.976;2024-03-23T10:25:14;2.87;;;1.10;;
22894;SDS011;11614;52.494;6.976;2024-03-23T10:27:41;4.80;;;1.77;;
22894;SDS011;11614;52.494;6.976;2024-03-23T10:30:12;7.20;;;2.07;;
22894;SDS011;11614;52.494;6.976;2024-03-23T10:32:39;5.07;;;1.77;;
22894;SDS011;11614;52.494;6.976;2024-03-23T10:35:19;4.23;;;1.17;;
22894;SDS011;11614;52.494;6.976;2024-03-23T10:37:49;3.23;;;1.87;;
22894;SDS011;11614;52.494;6.976;2024-03-23T10:40:17;4.53;;;1.57;;
22894;SDS011;11614;52.494;6.976;2024-03-23T10:42:46;4.67;;;1.87;;
22894;SDS011;11614;52.494;6.976;2024-03-23T10:45:13;3.47;;;1.37;;
22894;SDS011;11614;52.494;6.976;2024-03-23T10:47:39;5.87;;;1.53;;
22894;SDS011;11614;52.494;6.976;2024-03-23T10:50:05;5.57;;;1.70;;
22894;SDS011;11614;52.494;6.976;2024-03-23T10:52:34;3.57;;;1.67;;
22894;SDS011;11614;52.494;6.976;2024-03-23T10:55:00;6.37;;;2.00;;
22894;SDS011;11614;52.494;6.976;2024-03-23T10:57:40;5.80;;;1.90;;
22894;SDS011;11614;52.494;6.976;2024-03-23T11:00:07;5.07;;;2.10;;
22894;SDS011;11614;52.494;6.976;2024-03-23T11:02:33;5.13;;;1.67;;
22894;SDS011;11614;52.494;6.976;2024-03-23T11:04:59;2.33;;;1.40;;
22894;SDS011;11614;52.494;6.976;2024-03-23T11:09:52;5.73;;;1.90;;
22894;SDS011;11614;52.494;6.976;2024-03-23T11:14:44;1.13;;;0.57;;
22894;SDS011;11614;52.494;6.976;2024-03-23T11:17:10;1.67;;;0.37;;
22894;SDS011;11614;52.494;6.976;2024-03-23T11:19:37;2.33;;;0.30;;
22894;SDS011;11614;52.494;6.976;2024-03-23T11:22:03;3.83;;;0.80;;
22894;SDS011;11614;52.494;6.976;2024-03-23T11:24:30;2.57;;;0.60;;
22894;SDS011;11614;52.494;6.976;2024-03-23T11:26:56;1.67;;;0.70;;
22894;SDS011;11614;52.494;6.976;2024-03-23T11:29:26;3.10;;;0.90;;
22894;SDS011;11614;52.494;6.976;2024-03-23T11:31:54;6.33;;;1.13;;
22894;SDS011;11614;52.494;6.976;2024-03-23T11:34:20;1.77;;;0.50;;
22894;SDS011;11614;52.494;6.976;2024-03-23T11:36:47;1.93;;;0.60;;
22894;SDS011;11614;52.494;6.976;2024-03-23T11:39:17;3.00;;;0.90;;
22894;SDS011;11614;52.494;6.976;2024-03-23T11:41:47;4.60;;;1.40;;
22894;SDS011;11614;52.494;6.976;2024-03-23T11:44:20;5.33;;;1.27;;
22894;SDS011;11614;52.494;6.976;2024-03-23T11:46:50;3.67;;;0.93;;
22894;SDS011;11614;52.494;6.976;2024-03-23T11:49:23;1.60;;;0.67;;
22894;SDS011;11614;52.494;6.976;2024-03-23T11:51:49;4.20;;;1.70;;
22894;SDS011;11614;52.494;6.976;2024-03-23T11:54:15;3.70;;;1.37;;
22894;SDS011;11614;52.494;6.976;2024-03-23T11:56:53;3.00;;;1.00;;
22894;SDS011;11614;52.494;6.976;2024-03-23T11:59:35;4.53;;;1.30;;
22894;SDS011;11614;52.494;6.976;2024-03-23T12:02:09;2.57;;;1.00;;
22894;SDS011;11614;52.494;6.976;2024-03-23T12:04:36;3.37;;;0.70;;
22894;SDS011;11614;52.494;6.976;2024-03-23T12:07:11;2.50;;;1.00;;
22894;SDS011;11614;52.494;6.976;2024-03-23T12:09:37;4.03;;;1.47;;
22894;SDS011;11614;52.494;6.976;2024-03-23T12:12:16;2.43;;;0.67;;
22894;SDS011;11614;52.494;6.976;2024-03-23T12:14:43;3.37;;;1.30;;
22894;SDS011;11614;52.494;6.976;2024-03-23T12:17:09;1.87;;;1.00;;
22894;SDS011;11614;52.494;6.976;2024-03-23T12:19:35;4.90;;;1.00;;
22894;SDS011;11614;52.494;6.976;2024-03-23T12:22:02;2.57;;;0.93;;
22894;SDS011;11614;52.494;6.976;2024-03-23T12:24:29;3.63;;;1.50;;
22894;SDS011;11614;52.494;6.976;2024-03-23T12:26:55;3.17;;;1.27;;
22894;SDS011;11614;52.494;6.976;2024-03-23T12:29:21;3.57;;;1.00;;
22894;SDS011;11614;52.494;6.976;2024-03-23T12:31:47;3.80;;;1.50;;
22894;SDS011;11614;52.494;6.976;2024-03-23T12:34:13;2.43;;;0.83;;
22894;SDS011;11614;52.494;6.976;2024-03-23T12:36:39;2.33;;;0.90;;
22894;SDS011;11614;52.494;6.976;2024-03-23T12:39:05;4.43;;;1.40;;
22894;SDS011;11614;52.494;6.976;2024-03-23T12:41:31;2.97;;;0.90;;
22894;SDS011;11614;52.494;6.976;2024-03-23T12:43:58;3.07;;;0.70;;
22894;SDS011;11614;52.494;6.976;2024-03-23T12:46:24;2.03;;;0.63;;
22894;SDS011;11614;52.494;6.976;2024-03-23T12:48:50;1.70;;;0.70;;
22894;SDS011;11614;52.494;6.976;2024-03-23T12:51:16;1.23;;;0.40;;
22894;SDS011;11614;52.494;6.976;2024-03-23T12:53:42;1.50;;;0.70;;
22894;SDS011;11614;52.494;6.976;2024-03-23T12:56:11;1.10;;;0.30;;
22894;SDS011;11614;52.494;6.976;2024-03-23T12:58:37;1.53;;;0.83;;
22894;SDS011;11614;52.494;6.976;2024-03-23T13:01:03;4.40;;;0.67;;
22894;SDS011;11614;52.494;6.976;2024-03-23T13:03:31;2.83;;;0.57;;
22894;SDS011;11614;52.494;6.976;2024-03-23T13:05:57;1.60;;;0.40;;
22894;SDS011;11614;52.494;6.976;2024-03-23T13:08:23;4.03;;;1.43;;
22894;SDS011;11614;52.494;6.976;2024-03-23T13:10:51;6.97;;;1.50;;
22894;SDS011;11614;52.494;6.976;2024-03-23T13:13:17;2.93;;;1.20;;
22894;SDS011;11614;52.494;6.976;2024-03-23T13:15:49;5.57;;;1.90;;
22894;SDS011;11614;52.494;6.976;2024-03-23T13:18:15;5.20;;;1.13;;
22894;SDS011;11614;52.494;6.976;2024-03-23T13:20:41;4.47;;;1.70;;
22894;SDS011;11614;52.494;6.976;2024-03-23T13:23:07;0.90;;;0.50;;
22894;SDS011;11614;52.494;6.976;2024-03-23T13:25:33;1.60;;;0.63;;
22894;SDS011;11614;52.494;6.976;2024-03-23T13:28:00;1.67;;;0.70;;
22894;SDS011;11614;52.494;6.976;2024-03-23T13:30:27;2.77;;;0.63;;
22894;SDS011;11614;52.494;6.976;2024-03-23T13:32:53;1.63;;;0.67;;
22894;SDS011;11614;52.494;6.976;2024-03-23T13:35:19;2.77;;;0.80;;
22894;SDS011;11614;52.494;6.976;2024-03-23T13:37:45;4.20;;;1.57;;
22894;SDS011;11614;52.494;6.976;2024-03-23T13:40:11;3.77;;;1.23;;
22894;SDS011;11614;52.494;6.976;2024-03-23T13:42:37;5.23;;;1.20;;
22894;SDS011;11614;52.494;6.976;2024-03-23T13:45:03;2.40;;;1.13;;
22894;SDS011;11614;52.494;6.976;2024-03-23T13:47:29;3.23;;;0.90;;
22894;SDS011;11614;52.494;6.976;2024-03-23T13:49:55;3.90;;;0.67;;
22894;SDS011;11614;52.494;6.976;2024-03-23T13:52:21;2.77;;;0.77;;
22894;SDS011;11614;52.494;6.976;2024-03-23T13:54:51;3.70;;;0.73;;
22894;SDS011;11614;52.494;6.976;2024-03-23T13:57:17;1.60;;;0.73;;
22894;SDS011;11614;52.494;6.976;2024-03-23T13:59:46;2.43;;;0.80;;
22894;SDS011;11614;52.494;6.976;2024-03-23T14:02:12;2.40;;;0.80;;
22894;SDS011;11614;52.494;6.976;2024-03-23T14:04:39;1.83;;;0.70;;
22894;SDS011;11614;52.494;6.976;2024-03-23T14:07:05;3.00;;;0.80;;
22894;SDS011;11614;52.494;6.976;2024-03-23T14:09:32;3.30;;;1.00;;
22894;SDS011;11614;52.494;6.976;2024-03-23T14:11:58;5.53;;;1.10;;
22894;SDS011;11614;52.494;6.976;2024-03-23T14:14:35;5.30;;;1.40;;
22894;SDS011;11614;52.494;6.976;2024-03-23T14:17:00;3.47;;;0.90;;
22894;SDS011;11614;52.494;6.976;2024-03-23T14:19:26;4.57;;;1.27;;
22894;SDS011;11614;52.494;6.976;2024-03-23T14:21:52;4.23;;;1.20;;
22894;SDS011;11614;52.494;6.976;2024-03-23T14:24:19;4.30;;;1.50;;
22894;SDS011;11614;52.494;6.976;2024-03-23T14:26:45;4.47;;;1.90;;
22894;SDS011;11614;52.494;6.976;2024-03-23T14:29:11;2.50;;;0.50;;
22894;SDS011;11614;52.494;6.976;2024-03-23T14:31:37;2.20;;;0.80;;
22894;SDS011;11614;52.494;6.976;2024-03-23T14:34:03;8.57;;;1.37;;
22894;SDS011;11614;52.494;6.976;2024-03-23T14:36:29;3.60;;;0.97;;
22894;SDS011;11614;52.494;6.976;2024-03-23T14:38:54;4.43;;;1.23;;
22894;SDS011;11614;52.494;6.976;2024-03-23T14:41:21;2.23;;;1.43;;
22894;SDS011;11614;52.494;6.976;2024-03-23T14:43:47;2.10;;;0.90;;
22894;SDS011;11614;52.494;6.976;2024-03-23T14:46:15;1.70;;;0.83;;
22894;SDS011;11614;52.494;6.976;2024-03-23T14:48:42;1.97;;;0.77;;
22894;SDS011;11614;52.494;6.976;2024-03-23T14:51:09;1.47;;;0.57;;
22894;SDS011;11614;52.494;6.976;2024-03-23T14:53:35;2.93;;;0.90;;
22894;SDS011;11614;52.494;6.976;2024-03-23T14:56:02;3.40;;;0.73;;
22894;SDS011;11614;52.494;6.976;2024-03-23T14:58:29;1.07;;;0.40;;
22894;SDS011;11614;52.494;6.976;2024-03-23T15:01:01;1.53;;;0.50;;
22894;SDS011;11614;52.494;6.976;2024-03-23T15:03:28;1.70;;;0.63;;
22894;SDS011;11614;52.494;6.976;2024-03-23T15:05:57;2.43;;;0.80;;
22894;SDS011;11614;52.494;6.976;2024-03-23T15:08:23;1.43;;;0.43;;
22894;SDS011;11614;52.494;6.976;2024-03-23T15:10:49;2.70;;;0.57;;
22894;SDS011;11614;52.494;6.976;2024-03-23T15:13:16;2.97;;;1.27;;
22894;SDS011;11614;52.494;6.976;2024-03-23T15:15:42;2.17;;;1.00;;
22894;SDS011;11614;52.494;6.976;2024-03-23T15:18:12;2.20;;;0.73;;
22894;SDS011;11614;52.494;6.976;2024-03-23T15:20:39;3.87;;;1.17;;
22894;SDS011;11614;52.494;6.976;2024-03-23T15:23:05;2.43;;;0.73;;
22894;SDS011;11614;52.494;6.976;2024-03-23T15:25:31;4.83;;;1.77;;
22894;SDS011;11614;52.494;6.976;2024-03-23T15:27:58;3.80;;;1.10;;
22894;SDS011;11614;52.494;6.976;2024-03-23T15:30:25;4.63;;;1.30;;
22894;SDS011;11614;52.494;6.976;2024-03-23T15:32:51;3.40;;;1.20;;
22894;SDS011;11614;52.494;6.976;2024-03-23T15:35:17;6.13;;;1.40;;
22894;SDS011;11614;52.494;6.976;2024-03-23T15:37:44;4.80;;;1.20;;
22894;SDS011;11614;52.494;6.976;2024-03-23T15:40:10;3.37;;;0.60;;
22894;SDS011;11614;52.494;6.976;2024-03-23T15:42:38;4.33;;;1.60;;